Time;durP1;ratioP1;P1;durP2;ratioP2;P2;SDS_P1;SDS_P2;PMS_P1;PMS_P2;Temp;Humidity;BMP_temperature;BMP_pressure;BME280_temperature;BME280_humidity;BME280_pressure;Samples;Min_cycle;Max_cycle;Signal;HPM_P1;HPM_P2
2023/12/22 00:00:32;;;;;;;2.67;0.68;;;13.50;73.80;;;;;;2483496;55;20919;-69
2023/12/22 00:02:59;;;;;;;2.62;0.75;;;13.50;73.60;;;;;;2260988;55;20970;-71
2023/12/22 00:05:27;;;;;;;2.28;0.70;;;13.40;73.50;;;;;;2482824;55;21755;-70
2023/12/22 00:07:55;;;;;;;4.18;1.05;;;13.40;73.30;;;;;;2475911;54;20988;-71
2023/12/22 00:10:21;;;;;;;3.80;0.93;;;13.40;73.20;;;;;;2248584;56;21038;-70
2023/12/22 00:12:48;;;;;;;3.65;0.80;;;13.40;73.00;;;;;;2254841;55;21635;-70
2023/12/22 00:15:14;;;;;;;2.22;0.62;;;13.40;73.00;;;;;;2245084;57;21507;-71
2023/12/22 00:17:41;;;;;;;3.10;0.68;;;13.40;73.00;;;;;;2255228;56;21031;-71
2023/12/22 00:20:13;;;;;;;3.00;0.90;;;13.40;73.00;;;;;;2483593;55;21793;-69
2023/12/22 00:22:39;;;;;;;4.75;0.90;;;13.30;72.90;;;;;;2255407;56;20967;-70
2023/12/22 00:25:07;;;;;;;5.43;0.93;;;13.30;72.90;;;;;;2255473;56;20951;-71
2023/12/22 00:31:13;;;;;;;4.70;0.80;;;13.30;72.10;;;;;;2483946;54;20950;-70
2023/12/22 00:33:43;;;;;;;3.50;0.60;;;13.30;73.00;;;;;;2255969;56;20963;-70
2023/12/22 00:36:11;;;;;;;2.55;0.90;;;13.20;73.00;;;;;;2487447;55;21042;-70
2023/12/22 00:38:38;;;;;;;4.12;0.62;;;13.20;72.90;;;;;;2261172;55;20982;-70
2023/12/22 00:41:04;;;;;;;2.75;0.62;;;13.20;72.90;;;;;;2482643;55;21022;-70
2023/12/22 00:43:32;;;;;;;3.47;0.98;;;13.20;72.90;;;;;;2255885;56;20994;-70
2023/12/22 00:45:58;;;;;;;2.95;0.70;;;13.20;72.90;;;;;;2483040;54;21253;-70
2023/12/22 00:48:24;;;;;;;3.50;0.90;;;13.20;73.10;;;;;;2256307;56;21014;-70
2023/12/22 00:50:51;;;;;;;2.97;0.80;;;13.20;73.00;;;;;;2483943;54;20990;-71
2023/12/22 00:53:17;;;;;;;4.40;0.90;;;13.10;73.00;;;;;;2258334;55;21023;-71
2023/12/22 00:55:43;;;;;;;2.22;0.80;;;13.10;72.90;;;;;;2483211;55;21019;-70
2023/12/22 00:58:11;;;;;;;3.67;0.82;;;13.10;73.00;;;;;;2255916;56;20954;-71
2023/12/22 01:00:37;;;;;;;6.18;1.15;;;13.10;73.00;;;;;;2485879;54;21517;-70
2023/12/22 01:03:04;;;;;;;3.17;0.70;;;13.10;73.10;;;;;;2247236;55;22507;-71
2023/12/22 01:05:31;;;;;;;5.03;1.02;;;13.10;73.20;;;;;;2495922;54;20916;-71
2023/12/22 01:07:57;;;;;;;3.60;0.82;;;13.20;73.30;;;;;;2263936;56;20966;-70
2023/12/22 01:10:24;;;;;;;3.10;0.80;;;13.10;73.20;;;;;;2255895;55;20959;-70
2023/12/22 01:12:50;;;;;;;2.15;0.68;;;13.10;73.20;;;;;;2256523;56;20935;-70
2023/12/22 01:15:17;;;;;;;4.37;1.17;;;13.10;73.20;;;;;;2259924;55;21050;-71
2023/12/22 01:18:01;;;;;;;3.40;0.70;;;13.10;73.20;;;;;;2256256;55;21049;-70
2023/12/22 01:20:36;;;;;;;3.22;0.52;;;13.10;72.50;;;;;;2490194;55;21039;-70
2023/12/22 01:23:03;;;;;;;3.80;0.80;;;13.10;73.30;;;;;;2483302;55;21295;-71
2023/12/22 01:25:29;;;;;;;5.32;0.90;;;13.00;73.40;;;;;;2489310;55;20963;-70
2023/12/22 01:27:57;;;;;;;3.20;0.70;;;13.10;73.30;;;;;;2255390;55;22219;-71
2023/12/22 01:30:30;;;;;;;2.35;0.60;;;13.00;73.30;;;;;;2484194;55;21024;-70
2023/12/22 01:32:56;;;;;;;5.07;0.80;;;13.00;73.20;;;;;;2247182;55;21692;-71
2023/12/22 01:35:23;;;;;;;5.15;0.73;;;13.00;73.30;;;;;;2263003;55;20965;-69
2023/12/22 01:37:51;;;;;;;3.78;0.90;;;13.00;73.20;;;;;;2260657;56;21248;-70
2023/12/22 01:40:18;;;;;;;3.37;0.68;;;13.00;74.00;;;;;;2482334;54;21050;-71
2023/12/22 01:42:48;;;;;;;1.70;0.60;;;13.00;73.30;;;;;;2257047;56;20971;-70
2023/12/22 01:45:14;;;;;;;3.30;0.90;;;13.00;73.20;;;;;;2254894;55;21042;-70
2023/12/22 01:47:40;;;;;;;3.97;0.80;;;13.00;73.40;;;;;;2484617;54;20994;-70
2023/12/22 01:50:10;;;;;;;4.40;0.98;;;13.00;73.40;;;;;;2257753;55;21018;-70
2023/12/22 01:52:38;;;;;;;2.65;0.80;;;13.00;73.30;;;;;;2482943;54;22548;-71
2023/12/22 01:55:05;;;;;;;4.93;0.90;;;13.10;73.40;;;;;;2482728;54;20972;-69
2023/12/22 01:57:34;;;;;;;3.65;1.00;;;13.00;73.30;;;;;;2483022;54;21898;-70
2023/12/22 02:00:01;;;;;;;4.93;0.90;;;13.00;73.30;;;;;;2255316;56;20954;-70
2023/12/22 02:02:28;;;;;;;5.03;1.05;;;13.00;73.40;;;;;;2255529;56;21006;-70
2023/12/22 02:04:57;;;;;;;6.15;1.00;;;13.00;73.40;;;;;;2261462;55;20938;-69
2023/12/22 02:07:23;;;;;;;3.95;0.90;;;13.00;73.20;;;;;;2483797;54;20963;-70
2023/12/22 02:09:49;;;;;;;5.18;0.93;;;13.00;73.10;;;;;;2483064;54;21034;-70
2023/12/22 02:12:16;;;;;;;2.90;0.80;;;13.00;73.20;;;;;;2483460;55;21072;-70
2023/12/22 02:14:42;;;;;;;3.20;0.90;;;13.10;73.30;;;;;;2478888;55;20987;-71
2023/12/22 02:17:24;;;;;;;2.12;0.65;;;13.10;73.30;;;;;;2260716;56;20998;-69
2023/12/22 02:19:53;;;;;;;4.12;0.90;;;13.10;72.80;;;;;;2261338;55;22126;-70
2023/12/22 02:22:22;;;;;;;3.08;0.65;;;13.10;73.20;;;;;;2482217;55;21326;-70
2023/12/22 02:24:50;;;;;;;3.83;0.80;;;13.10;73.10;;;;;;2483509;55;20998;-70
2023/12/22 02:29:08;;;;;;;2.72;0.80;;;13.10;73.10;;;;;;2255939;55;21468;-68
2023/12/22 02:31:37;;;;;;;4.50;0.90;;;13.10;71.50;;;;;;2472623;54;21507;-71
2023/12/22 02:34:07;;;;;;;3.85;1.00;;;13.10;73.10;;;;;;2489928;55;21475;-69
2023/12/22 02:36:35;;;;;;;3.05;0.68;;;13.10;73.00;;;;;;2480421;55;20986;-69
2023/12/22 02:39:01;;;;;;;4.72;0.93;;;13.10;73.00;;;;;;2254744;55;20956;-70
2023/12/22 02:41:27;;;;;;;6.70;0.90;;;13.10;72.90;;;;;;2257728;56;20982;-71
2023/12/22 02:43:57;;;;;;;5.28;0.88;;;13.10;73.00;;;;;;2261670;55;21396;-70
2023/12/22 02:46:23;;;;;;;1.67;0.57;;;13.10;72.90;;;;;;2255656;55;20971;-71
2023/12/22 02:48:49;;;;;;;4.60;0.90;;;13.10;72.90;;;;;;2260056;56;20982;-70
2023/12/22 02:51:16;;;;;;;3.75;1.00;;;13.10;73.00;;;;;;2256326;55;21022;-69
2023/12/22 02:53:43;;;;;;;4.25;0.95;;;13.10;72.90;;;;;;2483455;55;21030;-70
2023/12/22 02:56:09;;;;;;;4.45;1.20;;;13.10;73.00;;;;;;2482486;55;20993;-72
2023/12/22 02:58:36;;;;;;;5.47;1.30;;;13.00;72.70;;;;;;2260834;56;20940;-70
2023/12/22 03:01:02;;;;;;;6.15;0.98;;;13.00;72.70;;;;;;2256102;55;21007;-74
2023/12/22 03:03:29;;;;;;;6.05;0.95;;;13.00;72.70;;;;;;2484413;55;20970;-69
2023/12/22 03:05:56;;;;;;;7.00;1.67;;;13.00;72.40;;;;;;2487315;55;20966;-71
2023/12/22 03:08:22;;;;;;;3.80;0.90;;;13.00;72.50;;;;;;2482857;55;21199;-71
2023/12/22 03:10:49;;;;;;;4.03;1.48;;;13.00;72.60;;;;;;2255861;55;20919;-73
2023/12/22 03:13:15;;;;;;;7.68;1.30;;;13.00;72.60;;;;;;2482817;55;21429;-71
2023/12/22 03:15:41;;;;;;;4.15;0.80;;;13.00;72.50;;;;;;2256184;55;21411;-70
2023/12/22 03:18:10;;;;;;;3.00;0.95;;;13.00;72.60;;;;;;2489540;54;20974;-71
2023/12/22 03:20:39;;;;;;;5.15;1.23;;;13.00;72.50;;;;;;2258673;55;20966;-71
2023/12/22 03:23:05;;;;;;;4.43;1.02;;;13.00;72.50;;;;;;2262454;55;21054;-71
2023/12/22 03:25:33;;;;;;;5.45;0.93;;;12.90;72.40;;;;;;2259677;56;20982;-71
2023/12/22 03:27:59;;;;;;;5.50;1.10;;;12.90;72.40;;;;;;2483873;55;21017;-72
2023/12/22 03:30:26;;;;;;;5.70;1.25;;;12.90;72.40;;;;;;2255473;56;21006;-71
2023/12/22 03:32:52;;;;;;;3.78;0.98;;;12.90;72.40;;;;;;2255238;56;20967;-72
2023/12/22 03:35:19;;;;;;;3.15;0.68;;;12.90;72.40;;;;;;2260204;55;20987;-72
2023/12/22 03:37:46;;;;;;;4.05;0.88;;;12.90;72.40;;;;;;2262699;55;21432;-72
2023/12/22 03:40:12;;;;;;;6.15;1.00;;;12.90;72.50;;;;;;2254887;55;21125;-68
2023/12/22 03:42:39;;;;;;;5.05;1.17;;;12.90;72.50;;;;;;2255478;56;21137;-69
2023/12/22 03:45:06;;;;;;;5.07;1.00;;;12.90;72.50;;;;;;2483626;54;21942;-72
2023/12/22 03:47:32;;;;;;;4.90;0.85;;;12.90;72.50;;;;;;2258361;55;22103;-70
2023/12/22 03:49:58;;;;;;;6.43;1.15;;;12.90;72.50;;;;;;2260761;56;20903;-73
2023/12/22 03:53:14;;;;;;;6.07;0.80;;;12.90;72.40;;;;;;2255778;56;20953;-70
2023/12/22 03:55:58;;;;;;;4.53;0.80;;;12.80;71.50;;;;;;2518709;54;20945;-69
2023/12/22 03:58:26;;;;;;;5.28;1.45;;;12.80;71.50;;;;;;2285208;55;20974;-70
2023/12/22 04:00:54;;;;;;;7.60;1.67;;;12.80;72.30;;;;;;2506640;54;21511;-70
2023/12/22 04:03:20;;;;;;;7.47;1.60;;;12.80;72.30;;;;;;2281678;55;21325;-70
2023/12/22 04:05:48;;;;;;;6.43;1.65;;;12.80;72.30;;;;;;2286093;56;21009;-71
2023/12/22 04:08:15;;;;;;;7.22;1.75;;;12.80;72.40;;;;;;2519247;55;20941;-73
2023/12/22 04:10:44;;;;;;;7.15;1.80;;;12.80;72.60;;;;;;2519826;55;20958;-73
2023/12/22 04:13:10;;;;;;;9.52;3.55;;;12.80;72.60;;;;;;2285667;55;20965;-70
2023/12/22 04:15:38;;;;;;;6.60;2.25;;;12.70;72.50;;;;;;2285756;57;20972;-72
2023/12/22 04:18:04;;;;;;;6.35;1.80;;;12.70;72.60;;;;;;2286790;56;21037;-69
2023/12/22 04:20:31;;;;;;;5.93;1.42;;;12.70;72.60;;;;;;2285595;57;21080;-70
2023/12/22 04:23:02;;;;;;;4.37;1.55;;;12.70;72.60;;;;;;2286383;55;20942;-71
2023/12/22 04:25:28;;;;;;;5.82;1.67;;;12.80;72.80;;;;;;2286185;55;20918;-70
2023/12/22 04:27:56;;;;;;;6.37;1.75;;;12.80;72.80;;;;;;2285005;55;21021;-70
2023/12/22 04:30:22;;;;;;;6.70;1.40;;;12.80;72.80;;;;;;2285700;55;21002;-72
2023/12/22 04:32:48;;;;;;;3.50;1.12;;;12.80;73.30;;;;;;2520212;54;20984;-71
2023/12/22 04:35:15;;;;;;;5.15;1.35;;;12.80;72.80;;;;;;2285701;57;20914;-69
2023/12/22 04:37:44;;;;;;;5.70;1.50;;;12.80;72.80;;;;;;2286245;57;20945;-73
2023/12/22 04:40:11;;;;;;;7.72;1.98;;;12.80;72.70;;;;;;2285781;55;20977;-71
2023/12/22 04:42:39;;;;;;;9.85;2.12;;;12.80;72.60;;;;;;2286028;56;20993;-68
2023/12/22 04:45:08;;;;;;;6.18;1.33;;;12.80;72.70;;;;;;2520105;54;20962;-72
2023/12/22 04:47:34;;;;;;;6.53;1.50;;;12.80;72.70;;;;;;2285701;57;20931;-71
2023/12/22 04:50:00;;;;;;;5.43;1.30;;;12.80;72.70;;;;;;2285548;57;21388;-69
2023/12/22 04:52:28;;;;;;;7.50;1.23;;;12.80;72.70;;;;;;2501903;54;20907;-71
2023/12/22 04:54:56;;;;;;;6.93;1.60;;;12.80;72.60;;;;;;2285740;55;20906;-70
2023/12/22 04:57:22;;;;;;;5.45;1.77;;;12.80;72.60;;;;;;2285798;57;20945;-70
2023/12/22 04:59:49;;;;;;;5.35;1.20;;;12.80;72.60;;;;;;2519797;54;20969;-71
2023/12/22 05:02:16;;;;;;;4.60;1.17;;;12.80;72.60;;;;;;2278367;55;21017;-72
2023/12/22 05:04:43;;;;;;;2.92;0.80;;;12.80;72.60;;;;;;2506720;54;21070;-69
2023/12/22 05:10:50;;;;;;;5.70;1.15;;;12.80;71.50;;;;;;2517394;55;21003;-70
2023/12/22 05:13:19;;;;;;;6.15;1.50;;;12.80;72.50;;;;;;2505418;54;20938;-70
2023/12/22 05:15:46;;;;;;;7.55;1.50;;;12.80;72.20;;;;;;2286139;55;21394;-70
2023/12/22 05:18:12;;;;;;;7.22;1.45;;;12.80;72.50;;;;;;2286267;57;21422;-72
2023/12/22 05:20:39;;;;;;;7.05;2.30;;;12.80;72.50;;;;;;2285893;57;20994;-71
2023/12/22 05:23:06;;;;;;;8.85;2.20;;;12.80;72.50;;;;;;2527356;54;21829;-72
2023/12/22 05:25:32;;;;;;;9.25;3.08;;;12.80;72.50;;;;;;2275376;55;21322;-70
2023/12/22 05:27:59;;;;;;;8.40;3.00;;;12.80;72.50;;;;;;2285961;55;20942;-69
2023/12/22 05:30:26;;;;;;;15.90;5.93;;;12.80;72.50;;;;;;2286473;55;20938;-71
2023/12/22 05:32:54;;;;;;;13.40;4.62;;;12.70;72.40;;;;;;2520628;54;20997;-70
2023/12/22 05:35:23;;;;;;;8.68;2.55;;;12.80;72.50;;;;;;2483070;55;21031;-72
2023/12/22 05:37:49;;;;;;;10.32;2.87;;;12.80;72.50;;;;;;2245757;56;21003;-70
2023/12/22 05:40:16;;;;;;;8.52;2.28;;;12.70;72.40;;;;;;2482771;55;20955;-71
2023/12/22 05:46:13;;;;;;;5.85;2.12;;;12.70;71.50;;;;;;2484300;55;20982;-71
2023/12/22 05:48:44;;;;;;;5.72;1.65;;;12.70;72.40;;;;;;2255854;55;20947;-70
2023/12/22 05:51:13;;;;;;;3.90;1.48;;;12.70;72.50;;;;;;2486826;54;20986;-69
2023/12/22 05:53:40;;;;;;;8.52;1.75;;;12.70;72.40;;;;;;2269015;55;21010;-69
2023/12/22 05:56:19;;;;;;;6.28;1.35;;;12.70;72.60;;;;;;2469559;55;20956;-68
2023/12/22 05:58:55;;;;;;;5.70;1.33;;;12.70;72.10;;;;;;2483565;55;20966;-68
2023/12/22 06:01:21;;;;;;;5.72;1.50;;;12.70;72.10;;;;;;2489168;55;21015;-70
2023/12/22 06:03:48;;;;;;;5.00;1.27;;;12.70;72.70;;;;;;2483565;55;20963;-69
2023/12/22 06:06:14;;;;;;;4.53;1.10;;;12.70;72.60;;;;;;2255488;56;21165;-70
2023/12/22 06:08:40;;;;;;;4.47;1.20;;;12.70;72.70;;;;;;2256249;56;21033;-70
2023/12/22 06:11:08;;;;;;;5.65;1.17;;;12.70;72.70;;;;;;2255104;55;21819;-71
2023/12/22 06:13:34;;;;;;;8.23;1.62;;;12.70;72.70;;;;;;2255895;56;21503;-70
2023/12/22 06:16:01;;;;;;;7.72;1.55;;;12.70;72.60;;;;;;2256414;56;21755;-68
2023/12/22 06:18:36;;;;;;;4.68;1.37;;;12.70;72.50;;;;;;2246598;56;21601;-73
2023/12/22 06:21:03;;;;;;;3.58;1.08;;;12.80;72.20;;;;;;2260611;56;20956;-73
2023/12/22 06:23:30;;;;;;;6.85;1.17;;;12.60;72.40;;;;;;2482034;55;20931;-70
2023/12/22 06:25:57;;;;;;;5.68;1.30;;;12.80;72.60;;;;;;2240144;56;20979;-69
2023/12/22 06:28:24;;;;;;;9.27;1.35;;;12.80;72.60;;;;;;2482070;55;21051;-69
2023/12/22 06:30:50;;;;;;;6.82;1.35;;;12.70;72.30;;;;;;2267517;55;21036;-70
2023/12/22 06:33:17;;;;;;;4.85;1.10;;;12.70;72.30;;;;;;2260715;55;21034;-70
2023/12/22 06:35:44;;;;;;;7.00;1.40;;;12.70;72.30;;;;;;2260887;56;21910;-72
2023/12/22 06:38:11;;;;;;;3.97;1.20;;;12.70;72.30;;;;;;2459935;55;20946;-70
2023/12/22 06:40:39;;;;;;;5.78;1.15;;;12.70;72.20;;;;;;2491702;54;20898;-71
2023/12/22 06:43:05;;;;;;;9.02;1.85;;;12.70;72.30;;;;;;2486591;55;21082;-70
2023/12/22 06:45:31;;;;;;;6.55;1.30;;;12.70;72.10;;;;;;2255251;56;20958;-72
2023/12/22 06:47:58;;;;;;;7.12;1.50;;;12.70;72.10;;;;;;2260919;56;20924;-71
2023/12/22 06:50:24;;;;;;;6.35;1.83;;;12.70;72.10;;;;;;2260435;55;21436;-71
2023/12/22 06:52:51;;;;;;;6.78;1.98;;;12.70;72.10;;;;;;2488583;54;21702;-72
2023/12/22 06:55:17;;;;;;;7.22;2.00;;;12.70;71.50;;;;;;2294573;56;21003;-73
2023/12/22 06:57:44;;;;;;;5.30;1.37;;;12.70;72.10;;;;;;2526151;54;20980;-73
2023/12/22 07:00:11;;;;;;;5.35;1.30;;;12.60;72.10;;;;;;2508740;55;20929;-69
2023/12/22 07:02:38;;;;;;;7.62;1.17;;;12.60;72.10;;;;;;2509566;55;20964;-71
2023/12/22 07:08:36;;;;;;;6.03;0.95;;;12.50;72.10;;;;;;2277567;56;22293;-69
2023/12/22 07:11:03;;;;;;;6.40;1.08;;;12.50;71.00;;;;;;2508149;54;21024;-71
2023/12/22 07:13:29;;;;;;;5.62;1.15;;;12.50;72.20;;;;;;2277992;55;20964;-70
2023/12/22 07:19:23;;;;;;;5.75;1.12;;;12.50;71.50;;;;;;2508533;55;21037;-70
2023/12/22 07:21:49;;;;;;;4.10;1.27;;;12.40;72.10;;;;;;2509282;55;20972;-72
2023/12/22 07:24:16;;;;;;;8.45;1.67;;;12.40;72.20;;;;;;2509004;55;20944;-71
2023/12/22 07:26:44;;;;;;;5.03;1.27;;;12.40;72.20;;;;;;2279891;57;20944;-69
2023/12/22 07:29:14;;;;;;;5.68;1.40;;;12.40;72.40;;;;;;2507975;54;20952;-70
2023/12/22 07:31:42;;;;;;;6.07;1.60;;;12.40;72.30;;;;;;2509851;55;20944;-68
2023/12/22 07:34:09;;;;;;;9.50;2.47;;;12.30;72.30;;;;;;2276650;55;20968;-69
2023/12/22 07:36:36;;;;;;;16.80;5.07;;;12.30;72.20;;;;;;2509264;55;20960;-70
2023/12/22 07:39:06;;;;;;;11.50;4.30;;;12.30;72.30;;;;;;2276711;57;20990;-71
2023/12/22 07:41:35;;;;;;;51.53;18.60;;;12.30;72.40;;;;;;2276894;57;21066;-70
2023/12/22 07:44:02;;;;;;;32.28;12.80;;;12.30;72.40;;;;;;2509053;55;21560;-72
2023/12/22 07:46:29;;;;;;;23.55;9.75;;;12.30;72.50;;;;;;2508907;54;21054;-71
2023/12/22 07:48:56;;;;;;;14.75;6.45;;;12.30;72.60;;;;;;2277170;57;21000;-71
2023/12/22 07:51:23;;;;;;;12.55;4.65;;;12.30;72.50;;;;;;2276880;57;21090;-71
2023/12/22 07:53:52;;;;;;;8.82;3.00;;;12.20;72.40;;;;;;2277586;57;21417;-70
2023/12/22 07:56:18;;;;;;;5.75;1.87;;;12.30;72.40;;;;;;2508832;55;20956;-70
2023/12/22 07:58:45;;;;;;;7.37;2.30;;;12.20;72.50;;;;;;2276985;57;21000;-72
2023/12/22 08:01:11;;;;;;;7.90;1.80;;;12.20;72.60;;;;;;2247827;56;21419;-70
2023/12/22 08:03:38;;;;;;;5.93;1.55;;;12.20;72.60;;;;;;2477950;54;21022;-70
2023/12/22 08:06:05;;;;;;;6.40;1.73;;;12.20;72.60;;;;;;2251758;56;20955;-70
2023/12/22 08:08:34;;;;;;;8.00;1.40;;;12.20;72.60;;;;;;2478028;56;22238;-71
2023/12/22 08:11:00;;;;;;;8.75;1.52;;;12.20;72.70;;;;;;2478754;55;21496;-70
2023/12/22 08:13:27;;;;;;;7.90;1.42;;;12.20;72.70;;;;;;2251719;56;21047;-72
2023/12/22 08:15:54;;;;;;;8.13;1.65;;;12.20;72.70;;;;;;2479091;55;21791;-71
2023/12/22 08:18:20;;;;;;;7.82;1.70;;;12.20;72.70;;;;;;2249927;56;20932;-70
2023/12/22 08:20:49;;;;;;;9.77;1.90;;;12.20;72.60;;;;;;2490656;55;20948;-69
2023/12/22 08:23:15;;;;;;;7.28;1.85;;;12.20;72.60;;;;;;2267582;55;20984;-72
2023/12/22 08:25:43;;;;;;;5.45;1.52;;;12.30;72.80;;;;;;2250649;56;20943;-71
2023/12/22 08:28:12;;;;;;;5.60;1.80;;;12.30;72.90;;;;;;2481036;55;21004;-71
2023/12/22 08:30:38;;;;;;;7.78;2.53;;;12.30;72.90;;;;;;2252358;55;20972;-71
2023/12/22 08:33:04;;;;;;;8.57;2.17;;;12.30;73.60;;;;;;2492742;54;20931;-70
2023/12/22 08:35:32;;;;;;;8.25;2.00;;;12.30;72.90;;;;;;2272786;56;20954;-71
2023/12/22 08:38:00;;;;;;;8.10;1.80;;;12.30;72.90;;;;;;2505241;54;21009;-72
2023/12/22 08:40:26;;;;;;;7.47;1.92;;;12.30;72.90;;;;;;2272500;57;20972;-73
2023/12/22 08:43:02;;;;;;;9.10;1.80;;;12.30;72.90;;;;;;2273990;56;20958;-70
2023/12/22 08:45:28;;;;;;;5.90;1.33;;;12.30;72.80;;;;;;2273555;57;20965;-73
2023/12/22 08:47:55;;;;;;;7.87;1.62;;;12.30;72.80;;;;;;2273766;56;21701;-68
2023/12/22 08:50:22;;;;;;;7.22;1.37;;;12.30;72.90;;;;;;2272881;56;21937;-72
2023/12/22 08:52:49;;;;;;;8.88;1.40;;;12.30;72.90;;;;;;2273528;57;20965;-70
2023/12/22 08:55:16;;;;;;;8.10;1.48;;;12.30;72.90;;;;;;2272909;56;21495;-71
2023/12/22 08:57:42;;;;;;;5.68;1.40;;;12.30;72.90;;;;;;2504813;54;20969;-72
2023/12/22 09:00:12;;;;;;;9.10;2.20;;;12.30;73.00;;;;;;2273282;56;20954;-69
2023/12/22 09:02:39;;;;;;;7.50;2.08;;;12.30;72.90;;;;;;2273095;56;20976;-71
2023/12/22 09:05:07;;;;;;;13.88;2.58;;;12.30;73.60;;;;;;2242414;55;21562;-71
2023/12/22 09:07:33;;;;;;;12.50;4.15;;;12.30;72.90;;;;;;2245121;56;20958;-72
2023/12/22 09:09:59;;;;;;;15.05;4.03;;;12.40;73.00;;;;;;2478689;55;20930;-71
2023/12/22 09:12:26;;;;;;;14.63;3.15;;;12.40;73.00;;;;;;2261027;57;20991;-68
2023/12/22 09:14:53;;;;;;;9.80;2.70;;;12.40;72.80;;;;;;2479495;55;21004;-71
2023/12/22 09:17:20;;;;;;;11.07;3.55;;;12.40;72.60;;;;;;2272049;56;20993;-69
2023/12/22 09:19:46;;;;;;;6.55;3.37;;;12.40;72.60;;;;;;2279162;55;21035;-70
2023/12/22 09:22:12;;;;;;;8.07;3.15;;;12.40;72.60;;;;;;2253710;56;20952;-70
2023/12/22 09:24:39;;;;;;;6.60;2.20;;;12.30;72.40;;;;;;2484778;55;20947;-68
2023/12/22 09:27:08;;;;;;;9.52;2.35;;;12.30;72.40;;;;;;2483761;55;21007;-70
2023/12/22 09:29:36;;;;;;;10.13;3.20;;;12.30;72.40;;;;;;2496024;54;21101;-71
2023/12/22 09:32:02;;;;;;;9.05;4.35;;;12.30;72.40;;;;;;2478998;55;21110;-70
2023/12/22 09:34:28;;;;;;;9.05;4.30;;;12.30;72.40;;;;;;2478936;55;20934;-72
2023/12/22 09:36:58;;;;;;;10.35;3.28;;;12.30;72.50;;;;;;2479001;55;20990;-71
2023/12/22 09:39:24;;;;;;;8.13;2.85;;;12.30;72.50;;;;;;2251501;56;21030;-71
2023/12/22 09:41:51;;;;;;;9.85;3.58;;;12.30;72.50;;;;;;2251335;57;21784;-70
2023/12/22 09:44:20;;;;;;;9.90;3.05;;;12.30;72.50;;;;;;2239512;56;21547;-69
2023/12/22 09:46:49;;;;;;;12.10;6.05;;;12.20;72.40;;;;;;2261875;56;21032;-71
2023/12/22 09:49:17;;;;;;;15.00;7.62;;;12.30;72.60;;;;;;2499939;54;20965;-67
2023/12/22 09:51:45;;;;;;;12.63;5.50;;;12.30;72.60;;;;;;2251461;56;20930;-69
2023/12/22 09:54:12;;;;;;;11.32;5.43;;;12.30;72.60;;;;;;2478949;55;21469;-69
2023/12/22 09:56:42;;;;;;;9.82;4.72;;;12.30;72.60;;;;;;2489668;55;21192;-69
2023/12/22 09:59:15;;;;;;;10.32;4.05;;;12.30;72.60;;;;;;2247291;55;21595;-70
2023/12/22 10:01:45;;;;;;;12.02;3.45;;;12.30;72.40;;;;;;2492414;55;20944;-68
2023/12/22 10:04:13;;;;;;;8.35;2.80;;;12.20;72.20;;;;;;2487999;54;21014;-70
2023/12/22 10:06:39;;;;;;;7.03;2.53;;;12.20;72.30;;;;;;2287755;55;21053;-69
2023/12/22 10:09:11;;;;;;;8.20;2.10;;;12.20;72.40;;;;;;2290838;55;20910;-72
2023/12/22 10:11:37;;;;;;;7.18;2.10;;;12.20;72.40;;;;;;2290133;56;20989;-70
2023/12/22 10:14:04;;;;;;;11.43;1.58;;;12.20;72.50;;;;;;2290903;56;21466;-69
2023/12/22 10:16:32;;;;;;;8.98;1.50;;;12.20;72.60;;;;;;2289893;56;20978;-70
2023/12/22 10:19:01;;;;;;;8.00;1.77;;;12.20;72.60;;;;;;2290768;56;21765;-71
2023/12/22 10:21:30;;;;;;;6.30;1.67;;;12.20;72.60;;;;;;2289617;56;21049;-71
2023/12/22 10:23:58;;;;;;;7.45;1.75;;;12.20;72.70;;;;;;2290819;56;20958;-71
2023/12/22 10:26:24;;;;;;;7.93;2.15;;;12.20;72.60;;;;;;2282500;56;20960;-73
2023/12/22 10:28:51;;;;;;;6.55;1.62;;;12.20;72.60;;;;;;2290700;56;20921;-73
2023/12/22 10:31:22;;;;;;;6.72;1.65;;;12.20;72.50;;;;;;2290470;56;21051;-71
2023/12/22 10:33:48;;;;;;;7.53;3.15;;;12.20;72.50;;;;;;2525184;54;20976;-71
2023/12/22 10:36:15;;;;;;;16.00;5.93;;;12.10;72.40;;;;;;2525671;54;20958;-70
2023/12/22 10:38:43;;;;;;;17.20;7.43;;;12.10;72.40;;;;;;2284930;56;21606;-70
2023/12/22 10:41:09;;;;;;;13.70;5.72;;;12.10;72.50;;;;;;2270033;56;20930;-73
2023/12/22 10:43:42;;;;;;;14.68;5.45;;;12.10;72.50;;;;;;2282762;56;21473;-72
2023/12/22 10:46:10;;;;;;;15.95;5.43;;;12.10;72.40;;;;;;2270847;56;20966;-74
2023/12/22 10:48:37;;;;;;;15.15;4.97;;;12.10;72.40;;;;;;2521337;54;21077;-71
2023/12/22 10:51:07;;;;;;;16.02;5.47;;;12.10;72.60;;;;;;2521586;54;20918;-73
2023/12/22 10:53:36;;;;;;;18.70;7.22;;;12.00;72.50;;;;;;2292576;55;21033;-70
2023/12/22 10:56:02;;;;;;;12.90;4.30;;;12.00;72.50;;;;;;2522035;54;21001;-70
2023/12/22 10:58:29;;;;;;;10.27;3.67;;;12.00;72.60;;;;;;2269068;56;20943;-69
2023/12/22 11:00:55;;;;;;;10.65;2.83;;;12.00;72.60;;;;;;2282374;56;20974;-70
2023/12/22 11:03:23;;;;;;;9.55;2.80;;;12.00;72.60;;;;;;2290424;56;20981;-70
2023/12/22 11:05:49;;;;;;;6.40;2.15;;;12.00;72.60;;;;;;2290649;56;20958;-73
2023/12/22 11:08:17;;;;;;;6.95;1.98;;;12.00;72.70;;;;;;2289741;56;20929;-70
2023/12/22 11:10:44;;;;;;;7.43;1.85;;;12.00;72.60;;;;;;2525587;54;20932;-71
2023/12/22 11:13:13;;;;;;;6.75;1.95;;;12.00;72.70;;;;;;2525435;54;21736;-70
2023/12/22 11:15:41;;;;;;;7.70;1.67;;;12.00;72.70;;;;;;2524502;54;20930;-71
2023/12/22 11:18:09;;;;;;;7.93;1.58;;;12.00;72.70;;;;;;2291252;56;20961;-71
2023/12/22 11:20:37;;;;;;;5.47;1.40;;;12.00;72.80;;;;;;2290106;56;20910;-72
2023/12/22 11:23:04;;;;;;;7.50;1.67;;;12.00;72.80;;;;;;2525464;54;20898;-70
2023/12/22 11:25:30;;;;;;;9.05;1.70;;;12.00;72.90;;;;;;2524890;54;20925;-71
2023/12/22 11:27:57;;;;;;;5.65;1.60;;;12.00;72.90;;;;;;2525368;54;20926;-71
2023/12/22 11:30:24;;;;;;;6.75;1.35;;;12.00;73.00;;;;;;2290040;56;20926;-71
2023/12/22 11:32:51;;;;;;;6.43;1.60;;;12.00;73.10;;;;;;2525532;54;21689;-71
2023/12/22 11:35:19;;;;;;;6.80;1.30;;;12.00;73.20;;;;;;2525475;54;20913;-69
2023/12/22 11:37:45;;;;;;;7.30;1.40;;;12.00;73.20;;;;;;2290962;56;20935;-72
2023/12/22 11:40:17;;;;;;;4.32;1.25;;;12.00;73.30;;;;;;2283355;56;20992;-72
2023/12/22 11:42:45;;;;;;;4.95;1.52;;;12.00;73.20;;;;;;2513716;54;21011;-70
2023/12/22 11:45:15;;;;;;;5.93;1.50;;;11.80;73.10;;;;;;2500274;54;20918;-70
2023/12/22 11:47:44;;;;;;;4.22;1.33;;;12.10;73.50;;;;;;2291403;56;20933;-71
2023/12/22 11:50:10;;;;;;;6.68;1.52;;;12.00;74.10;;;;;;2291365;56;21043;-73
2023/12/22 11:52:48;;;;;;;3.33;1.20;;;12.00;73.50;;;;;;2525572;54;20989;-72
2023/12/22 11:55:14;;;;;;;5.43;1.45;;;12.00;73.50;;;;;;2260925;56;20943;-73
2023/12/22 11:57:41;;;;;;;4.43;1.33;;;12.00;73.50;;;;;;2525302;54;22270;-70
2023/12/22 12:00:10;;;;;;;4.00;1.37;;;12.00;73.50;;;;;;2526120;54;21372;-72
2023/12/22 12:02:40;;;;;;;3.40;1.17;;;12.00;73.50;;;;;;2525597;54;20962;-71
2023/12/22 12:05:12;;;;;;;4.00;1.10;;;12.00;73.60;;;;;;2290377;56;21059;-70
2023/12/22 12:07:50;;;;;;;4.00;1.37;;;12.00;73.50;;;;;;2524233;54;20981;-72
2023/12/22 12:13:49;;;;;;;4.60;1.17;;;12.00;73.50;;;;;;2523078;54;20974;-73
2023/12/22 12:16:19;;;;;;;3.80;1.00;;;12.00;72.80;;;;;;2291679;56;21487;-71
2023/12/22 12:18:45;;;;;;;2.12;1.00;;;12.10;73.70;;;;;;2524626;54;20925;-74
2023/12/22 12:21:12;;;;;;;3.37;0.95;;;12.00;73.60;;;;;;2525810;54;20990;-71
2023/12/22 12:23:41;;;;;;;4.20;1.02;;;12.00;73.70;;;;;;2272019;56;20971;-71
2023/12/22 12:26:08;;;;;;;3.50;1.15;;;12.00;73.70;;;;;;2266793;56;20910;-72
2023/12/22 12:28:36;;;;;;;3.87;1.17;;;12.00;73.70;;;;;;2524692;54;21066;-71
2023/12/22 12:31:06;;;;;;;3.12;0.98;;;12.10;73.80;;;;;;2525880;54;20882;-73
2023/12/22 12:33:33;;;;;;;3.37;1.12;;;12.10;73.80;;;;;;2524360;54;20949;-73
2023/12/22 12:36:00;;;;;;;3.40;0.88;;;12.10;73.80;;;;;;2272707;56;20967;-73
2023/12/22 12:38:55;;;;;;;4.15;1.25;;;12.10;73.80;;;;;;2512281;54;20941;-72
2023/12/22 12:41:31;;;;;;;3.30;0.90;;;12.10;73.70;;;;;;2290729;56;20965;-70
2023/12/22 12:44:01;;;;;;;3.58;0.90;;;12.10;73.90;;;;;;2264268;56;20986;-70
2023/12/22 12:46:35;;;;;;;3.67;1.08;;;12.10;74.00;;;;;;2524895;54;21025;-71
2023/12/22 12:49:05;;;;;;;2.58;0.80;;;12.10;74.00;;;;;;2526147;54;21033;-73
2023/12/22 12:51:38;;;;;;;3.37;0.90;;;12.10;74.20;;;;;;2524565;54;20961;-70
2023/12/22 12:54:08;;;;;;;2.20;0.80;;;12.10;74.20;;;;;;2289790;55;20955;-72
2023/12/22 12:56:52;;;;;;;1.40;0.70;;;12.10;74.30;;;;;;2525180;54;20933;-70
2023/12/22 12:59:19;;;;;;;1.70;0.65;;;12.10;74.10;;;;;;2290026;56;20954;-70
2023/12/22 13:01:46;;;;;;;2.22;0.68;;;12.20;74.50;;;;;;2285962;57;20957;-71
2023/12/22 13:04:13;;;;;;;2.25;0.80;;;12.20;74.50;;;;;;2520528;54;20945;-71
2023/12/22 13:06:47;;;;;;;1.95;0.80;;;12.20;74.60;;;;;;2519045;55;21270;-70
2023/12/22 13:09:14;;;;;;;1.35;0.50;;;12.20;74.50;;;;;;2483443;55;20978;-70
2023/12/22 13:11:42;;;;;;;2.40;0.68;;;12.20;74.70;;;;;;2467068;54;21015;-72